高雄終端管制區 - 高雄雷達席

METAR RCKH 200300Z 36007KT 330V050 9999 FEW015 SCT030 30/22 Q1003 NOSIG RMK A2964(F)=

站台狀態:Online
最後更新:2019-09-20 11:00:02